sensor_id;sensor_type;location;lat;lon;timestamp;temperature;humidity
18291;DHT22;9271;48.590;8.866;2023-04-03T00:00:37;6.90;98.90
18291;DHT22;9271;48.590;8.866;2023-04-03T00:03:07;7.00;99.10
18291;DHT22;9271;48.590;8.866;2023-04-03T00:05:34;7.10;98.80
18291;DHT22;9271;48.590;8.866;2023-04-03T00:08:02;7.20;98.50
18291;DHT22;9271;48.590;8.866;2023-04-03T00:10:33;7.10;98.70
18291;DHT22;9271;48.590;8.866;2023-04-03T00:13:00;6.90;98.00
18291;DHT22;9271;48.590;8.866;2023-04-03T00:15:26;7.00;98.50
18291;DHT22;9271;48.590;8.866;2023-04-03T00:17:53;7.20;98.20
18291;DHT22;9271;48.590;8.866;2023-04-03T00:20:23;7.20;98.00
18291;DHT22;9271;48.590;8.866;2023-04-03T00:22:50;7.00;98.40
18291;DHT22;9271;48.590;8.866;2023-04-03T00:25:20;6.90;97.80
18291;DHT22;9271;48.590;8.866;2023-04-03T00:27:47;6.90;98.60
18291;DHT22;9271;48.590;8.866;2023-04-03T00:30:16;6.90;97.60
18291;DHT22;9271;48.590;8.866;2023-04-03T00:32:43;6.80;97.80
18291;DHT22;9271;48.590;8.866;2023-04-03T00:35:10;6.90;97.80
18291;DHT22;9271;48.590;8.866;2023-04-03T00:37:41;6.60;98.50
18291;DHT22;9271;48.590;8.866;2023-04-03T00:40:09;6.70;98.90
18291;DHT22;9271;48.590;8.866;2023-04-03T00:42:39;6.80;98.20
18291;DHT22;9271;48.590;8.866;2023-04-03T00:45:30;6.80;97.80
18291;DHT22;9271;48.590;8.866;2023-04-03T00:47:57;6.90;97.90
18291;DHT22;9271;48.590;8.866;2023-04-03T00:50:26;6.90;98.30
18291;DHT22;9271;48.590;8.866;2023-04-03T00:52:53;6.80;97.80
18291;DHT22;9271;48.590;8.866;2023-04-03T00:55:21;6.80;97.50
18291;DHT22;9271;48.590;8.866;2023-04-03T00:57:49;7.00;97.70
18291;DHT22;9271;48.590;8.866;2023-04-03T01:00:19;7.00;97.80
18291;DHT22;9271;48.590;8.866;2023-04-03T01:02:46;7.00;97.90
18291;DHT22;9271;48.590;8.866;2023-04-03T01:05:13;6.90;97.60
18291;DHT22;9271;48.590;8.866;2023-04-03T01:07:41;7.00;97.70
18291;DHT22;9271;48.590;8.866;2023-04-03T01:10:11;6.90;97.80
18291;DHT22;9271;48.590;8.866;2023-04-03T01:12:41;6.90;97.60
18291;DHT22;9271;48.590;8.866;2023-04-03T01:15:12;6.90;97.60
18291;DHT22;9271;48.590;8.866;2023-04-03T01:17:41;6.90;97.40
18291;DHT22;9271;48.590;8.866;2023-04-03T01:23:20;7.00;97.40
18291;DHT22;9271;48.590;8.866;2023-04-03T01:25:50;7.10;97.30
18291;DHT22;9271;48.590;8.866;2023-04-03T01:28:20;7.00;96.80
18291;DHT22;9271;48.590;8.866;2023-04-03T01:30:51;6.80;97.50
18291;DHT22;9271;48.590;8.866;2023-04-03T01:33:21;6.70;97.70
18291;DHT22;9271;48.590;8.866;2023-04-03T01:35:48;6.80;97.20
18291;DHT22;9271;48.590;8.866;2023-04-03T01:38:14;6.80;97.30
18291;DHT22;9271;48.590;8.866;2023-04-03T01:40:41;6.80;96.90
18291;DHT22;9271;48.590;8.866;2023-04-03T01:43:08;6.90;96.90
18291;DHT22;9271;48.590;8.866;2023-04-03T01:45:35;6.80;96.60
18291;DHT22;9271;48.590;8.866;2023-04-03T01:48:02;6.90;96.50
18291;DHT22;9271;48.590;8.866;2023-04-03T01:50:30;6.90;96.70
18291;DHT22;9271;48.590;8.866;2023-04-03T01:52:57;6.80;96.70
18291;DHT22;9271;48.590;8.866;2023-04-03T01:55:24;6.80;96.80
18291;DHT22;9271;48.590;8.866;2023-04-03T01:57:50;6.70;96.60
18291;DHT22;9271;48.590;8.866;2023-04-03T02:00:18;6.80;96.70
18291;DHT22;9271;48.590;8.866;2023-04-03T02:02:44;6.60;97.20
18291;DHT22;9271;48.590;8.866;2023-04-03T02:05:11;6.50;97.60
18291;DHT22;9271;48.590;8.866;2023-04-03T02:07:39;6.60;97.10
18291;DHT22;9271;48.590;8.866;2023-04-03T02:10:06;6.60;97.20
18291;DHT22;9271;48.590;8.866;2023-04-03T02:12:33;6.60;97.20
18291;DHT22;9271;48.590;8.866;2023-04-03T02:15:00;6.60;96.60
18291;DHT22;9271;48.590;8.866;2023-04-03T02:17:27;6.60;96.70
18291;DHT22;9271;48.590;8.866;2023-04-03T02:19:53;6.50;96.80
18291;DHT22;9271;48.590;8.866;2023-04-03T02:22:20;6.40;97.00
18291;DHT22;9271;48.590;8.866;2023-04-03T02:24:48;6.30;96.90
18291;DHT22;9271;48.590;8.866;2023-04-03T02:27:17;6.30;97.20
18291;DHT22;9271;48.590;8.866;2023-04-03T02:29:44;6.20;96.80
18291;DHT22;9271;48.590;8.866;2023-04-03T02:32:10;6.40;97.00
18291;DHT22;9271;48.590;8.866;2023-04-03T02:34:37;6.30;97.30
18291;DHT22;9271;48.590;8.866;2023-04-03T02:37:04;6.30;97.20
18291;DHT22;9271;48.590;8.866;2023-04-03T02:39:30;6.30;97.00
18291;DHT22;9271;48.590;8.866;2023-04-03T02:41:58;6.30;96.70
18291;DHT22;9271;48.590;8.866;2023-04-03T02:44:25;6.30;97.30
18291;DHT22;9271;48.590;8.866;2023-04-03T02:46:52;6.30;97.10
18291;DHT22;9271;48.590;8.866;2023-04-03T02:49:19;6.10;97.00
18291;DHT22;9271;48.590;8.866;2023-04-03T02:51:46;6.00;97.60
18291;DHT22;9271;48.590;8.866;2023-04-03T02:54:13;6.00;97.20
18291;DHT22;9271;48.590;8.866;2023-04-03T02:56:39;5.90;96.90
18291;DHT22;9271;48.590;8.866;2023-04-03T02:59:08;6.00;97.10
18291;DHT22;9271;48.590;8.866;2023-04-03T03:01:34;5.80;96.90
18291;DHT22;9271;48.590;8.866;2023-04-03T03:04:01;5.60;97.40
18291;DHT22;9271;48.590;8.866;2023-04-03T03:06:28;5.70;97.30
18291;DHT22;9271;48.590;8.866;2023-04-03T03:08:55;5.50;97.30
18291;DHT22;9271;48.590;8.866;2023-04-03T03:11:22;5.50;97.50
18291;DHT22;9271;48.590;8.866;2023-04-03T03:13:48;5.40;97.50
18291;DHT22;9271;48.590;8.866;2023-04-03T03:16:16;5.30;97.40
18291;DHT22;9271;48.590;8.866;2023-04-03T03:18:43;5.30;97.10
18291;DHT22;9271;48.590;8.866;2023-04-03T03:21:10;5.20;97.10
18291;DHT22;9271;48.590;8.866;2023-04-03T03:23:37;5.10;97.30
18291;DHT22;9271;48.590;8.866;2023-04-03T03:26:05;5.00;97.50
18291;DHT22;9271;48.590;8.866;2023-04-03T03:28:33;5.00;97.50
18291;DHT22;9271;48.590;8.866;2023-04-03T03:31:00;5.10;97.20
18291;DHT22;9271;48.590;8.866;2023-04-03T03:33:29;5.10;97.40
18291;DHT22;9271;48.590;8.866;2023-04-03T03:35:56;5.10;97.20
18291;DHT22;9271;48.590;8.866;2023-04-03T03:38:23;5.10;97.00
18291;DHT22;9271;48.590;8.866;2023-04-03T03:40:51;5.00;97.00
18291;DHT22;9271;48.590;8.866;2023-04-03T03:43:18;5.10;97.10
18291;DHT22;9271;48.590;8.866;2023-04-03T03:45:46;5.10;97.20
18291;DHT22;9271;48.590;8.866;2023-04-03T03:48:15;5.20;97.20
18291;DHT22;9271;48.590;8.866;2023-04-03T03:50:43;5.40;96.90
18291;DHT22;9271;48.590;8.866;2023-04-03T03:53:10;5.40;96.50
18291;DHT22;9271;48.590;8.866;2023-04-03T03:55:37;5.50;96.50
18291;DHT22;9271;48.590;8.866;2023-04-03T03:58:04;5.50;96.10
18291;DHT22;9271;48.590;8.866;2023-04-03T04:00:30;5.50;96.50
18291;DHT22;9271;48.590;8.866;2023-04-03T04:02:57;5.60;96.70
18291;DHT22;9271;48.590;8.866;2023-04-03T04:05:24;5.50;96.20
18291;DHT22;9271;48.590;8.866;2023-04-03T04:07:54;5.40;96.50
18291;DHT22;9271;48.590;8.866;2023-04-03T04:10:21;5.50;96.30
18291;DHT22;9271;48.590;8.866;2023-04-03T04:12:48;5.40;96.30
18291;DHT22;9271;48.590;8.866;2023-04-03T04:15:16;5.40;96.70
18291;DHT22;9271;48.590;8.866;2023-04-03T04:17:44;5.50;96.80
18291;DHT22;9271;48.590;8.866;2023-04-03T04:20:11;5.70;96.60
18291;DHT22;9271;48.590;8.866;2023-04-03T04:22:38;5.80;96.60
18291;DHT22;9271;48.590;8.866;2023-04-03T04:25:07;5.60;96.30
18291;DHT22;9271;48.590;8.866;2023-04-03T04:27:34;5.50;96.50
18291;DHT22;9271;48.590;8.866;2023-04-03T04:30:00;5.40;96.60
18291;DHT22;9271;48.590;8.866;2023-04-03T04:32:28;5.60;96.50
18291;DHT22;9271;48.590;8.866;2023-04-03T04:34:54;5.80;96.60
18291;DHT22;9271;48.590;8.866;2023-04-03T04:37:21;5.80;96.00
18291;DHT22;9271;48.590;8.866;2023-04-03T04:39:48;5.70;96.40
18291;DHT22;9271;48.590;8.866;2023-04-03T04:42:16;5.70;96.30
18291;DHT22;9271;48.590;8.866;2023-04-03T04:44:43;5.70;96.50
18291;DHT22;9271;48.590;8.866;2023-04-03T04:47:09;5.60;96.20
18291;DHT22;9271;48.590;8.866;2023-04-03T04:49:36;5.70;95.90
18291;DHT22;9271;48.590;8.866;2023-04-03T04:52:03;5.70;96.00
18291;DHT22;9271;48.590;8.866;2023-04-03T04:54:30;5.70;95.90
18291;DHT22;9271;48.590;8.866;2023-04-03T04:56:57;5.60;96.40
18291;DHT22;9271;48.590;8.866;2023-04-03T04:59:25;5.80;96.10
18291;DHT22;9271;48.590;8.866;2023-04-03T05:01:51;5.80;96.30
18291;DHT22;9271;48.590;8.866;2023-04-03T05:04:18;5.80;95.80
18291;DHT22;9271;48.590;8.866;2023-04-03T05:06:45;5.70;95.90
18291;DHT22;9271;48.590;8.866;2023-04-03T05:09:12;5.70;95.70
18291;DHT22;9271;48.590;8.866;2023-04-03T05:11:38;5.90;95.40
18291;DHT22;9271;48.590;8.866;2023-04-03T05:14:05;5.90;95.50
18291;DHT22;9271;48.590;8.866;2023-04-03T05:16:34;6.00;95.60
18291;DHT22;9271;48.590;8.866;2023-04-03T05:19:01;5.90;95.10
18291;DHT22;9271;48.590;8.866;2023-04-03T05:21:28;6.00;95.00
18291;DHT22;9271;48.590;8.866;2023-04-03T05:23:57;5.70;95.20
18291;DHT22;9271;48.590;8.866;2023-04-03T05:26:24;5.80;94.90
18291;DHT22;9271;48.590;8.866;2023-04-03T05:28:53;5.90;94.80
18291;DHT22;9271;48.590;8.866;2023-04-03T05:31:20;5.90;94.80
18291;DHT22;9271;48.590;8.866;2023-04-03T05:33:48;5.90;94.50
18291;DHT22;9271;48.590;8.866;2023-04-03T05:36:15;5.90;94.70
18291;DHT22;9271;48.590;8.866;2023-04-03T05:38:42;5.90;94.90
18291;DHT22;9271;48.590;8.866;2023-04-03T05:41:09;6.00;94.60
18291;DHT22;9271;48.590;8.866;2023-04-03T05:43:36;6.30;94.20
18291;DHT22;9271;48.590;8.866;2023-04-03T05:46:06;6.40;94.60
18291;DHT22;9271;48.590;8.866;2023-04-03T05:48:33;6.40;94.30
18291;DHT22;9271;48.590;8.866;2023-04-03T05:51:01;6.50;94.00
18291;DHT22;9271;48.590;8.866;2023-04-03T05:53:30;6.60;93.80
18291;DHT22;9271;48.590;8.866;2023-04-03T05:55:57;6.50;93.30
18291;DHT22;9271;48.590;8.866;2023-04-03T05:58:24;6.40;92.60
18291;DHT22;9271;48.590;8.866;2023-04-03T06:00:53;6.20;92.90
18291;DHT22;9271;48.590;8.866;2023-04-03T06:03:20;6.30;92.50
18291;DHT22;9271;48.590;8.866;2023-04-03T06:05:47;6.20;92.80
18291;DHT22;9271;48.590;8.866;2023-04-03T06:08:16;6.30;91.60
18291;DHT22;9271;48.590;8.866;2023-04-03T06:10:42;6.30;91.80
18291;DHT22;9271;48.590;8.866;2023-04-03T06:13:09;6.40;92.20
18291;DHT22;9271;48.590;8.866;2023-04-03T06:15:36;6.70;91.20
18291;DHT22;9271;48.590;8.866;2023-04-03T06:18:03;6.70;91.60
18291;DHT22;9271;48.590;8.866;2023-04-03T06:20:30;7.00;90.80
18291;DHT22;9271;48.590;8.866;2023-04-03T06:22:57;7.20;90.10
18291;DHT22;9271;48.590;8.866;2023-04-03T06:25:25;7.20;90.50
18291;DHT22;9271;48.590;8.866;2023-04-03T06:27:52;7.40;90.50
18291;DHT22;9271;48.590;8.866;2023-04-03T06:30:20;7.60;89.70
18291;DHT22;9271;48.590;8.866;2023-04-03T06:32:47;7.60;90.00
18291;DHT22;9271;48.590;8.866;2023-04-03T06:35:14;7.80;88.30
18291;DHT22;9271;48.590;8.866;2023-04-03T06:37:41;7.90;87.60
18291;DHT22;9271;48.590;8.866;2023-04-03T06:40:15;7.90;87.90
18291;DHT22;9271;48.590;8.866;2023-04-03T06:42:45;7.70;87.10
18291;DHT22;9271;48.590;8.866;2023-04-03T06:45:12;7.40;87.10
18291;DHT22;9271;48.590;8.866;2023-04-03T06:47:39;7.70;88.40
18291;DHT22;9271;48.590;8.866;2023-04-03T06:50:06;7.80;86.70
18291;DHT22;9271;48.590;8.866;2023-04-03T06:52:34;7.80;87.00
18291;DHT22;9271;48.590;8.866;2023-04-03T06:55:01;7.70;88.50
18291;DHT22;9271;48.590;8.866;2023-04-03T06:57:27;7.80;87.40
18291;DHT22;9271;48.590;8.866;2023-04-03T06:59:55;7.90;86.60
18291;DHT22;9271;48.590;8.866;2023-04-03T07:02:22;8.00;86.00
18291;DHT22;9271;48.590;8.866;2023-04-03T07:04:49;7.70;87.50
18291;DHT22;9271;48.590;8.866;2023-04-03T07:07:15;7.50;88.90
18291;DHT22;9271;48.590;8.866;2023-04-03T07:09:42;7.80;89.80
18291;DHT22;9271;48.590;8.866;2023-04-03T07:12:09;8.10;88.90
18291;DHT22;9271;48.590;8.866;2023-04-03T07:14:36;8.20;87.50
18291;DHT22;9271;48.590;8.866;2023-04-03T07:17:04;8.30;86.60
18291;DHT22;9271;48.590;8.866;2023-04-03T07:19:31;8.30;87.90
18291;DHT22;9271;48.590;8.866;2023-04-03T07:21:57;8.40;86.40
18291;DHT22;9271;48.590;8.866;2023-04-03T07:24:24;8.90;86.20
18291;DHT22;9271;48.590;8.866;2023-04-03T07:26:51;9.20;85.80
18291;DHT22;9271;48.590;8.866;2023-04-03T07:29:18;8.90;84.00
18291;DHT22;9271;48.590;8.866;2023-04-03T07:31:46;8.50;84.60
18291;DHT22;9271;48.590;8.866;2023-04-03T07:34:15;8.60;85.40
18291;DHT22;9271;48.590;8.866;2023-04-03T07:36:41;9.00;86.40
18291;DHT22;9271;48.590;8.866;2023-04-03T07:39:08;9.20;83.50
18291;DHT22;9271;48.590;8.866;2023-04-03T07:41:35;9.00;83.70
18291;DHT22;9271;48.590;8.866;2023-04-03T07:44:01;8.90;83.70
18291;DHT22;9271;48.590;8.866;2023-04-03T07:46:28;9.00;84.70
18291;DHT22;9271;48.590;8.866;2023-04-03T07:48:55;9.50;84.10
18291;DHT22;9271;48.590;8.866;2023-04-03T07:51:23;9.80;82.30
18291;DHT22;9271;48.590;8.866;2023-04-03T07:53:50;10.20;79.30
18291;DHT22;9271;48.590;8.866;2023-04-03T07:56:16;10.30;77.80
18291;DHT22;9271;48.590;8.866;2023-04-03T07:58:43;10.30;78.10
18291;DHT22;9271;48.590;8.866;2023-04-03T08:01:10;10.20;78.80
18291;DHT22;9271;48.590;8.866;2023-04-03T08:03:38;9.90;80.80
18291;DHT22;9271;48.590;8.866;2023-04-03T08:06:06;9.50;79.30
18291;DHT22;9271;48.590;8.866;2023-04-03T08:08:35;9.30;80.80
18291;DHT22;9271;48.590;8.866;2023-04-03T08:11:02;9.60;81.30
18291;DHT22;9271;48.590;8.866;2023-04-03T08:13:31;10.50;77.60
18291;DHT22;9271;48.590;8.866;2023-04-03T08:16:06;11.90;74.40
18291;DHT22;9271;48.590;8.866;2023-04-03T08:18:32;13.60;69.00
18291;DHT22;9271;48.590;8.866;2023-04-03T08:20:59;14.20;68.10
18291;DHT22;9271;48.590;8.866;2023-04-03T08:23:26;14.10;66.10
18291;DHT22;9271;48.590;8.866;2023-04-03T08:25:54;13.70;65.30
18291;DHT22;9271;48.590;8.866;2023-04-03T08:28:20;13.50;65.80
18291;DHT22;9271;48.590;8.866;2023-04-03T08:30:47;12.70;67.90
18291;DHT22;9271;48.590;8.866;2023-04-03T08:33:14;12.20;67.30
18291;DHT22;9271;48.590;8.866;2023-04-03T08:35:41;11.90;68.30
18291;DHT22;9271;48.590;8.866;2023-04-03T08:38:08;11.30;69.80
18291;DHT22;9271;48.590;8.866;2023-04-03T08:40:35;11.40;71.50
18291;DHT22;9271;48.590;8.866;2023-04-03T08:43:22;11.10;70.20
18291;DHT22;9271;48.590;8.866;2023-04-03T08:45:59;11.30;70.80
18291;DHT22;9271;48.590;8.866;2023-04-03T08:48:30;11.60;68.80
18291;DHT22;9271;48.590;8.866;2023-04-03T08:51:00;11.80;68.90
18291;DHT22;9271;48.590;8.866;2023-04-03T08:53:30;12.20;67.10
18291;DHT22;9271;48.590;8.866;2023-04-03T08:55:58;12.70;66.80
18291;DHT22;9271;48.590;8.866;2023-04-03T08:58:33;12.70;66.30
18291;DHT22;9271;48.590;8.866;2023-04-03T09:01:04;12.70;67.50
18291;DHT22;9271;48.590;8.866;2023-04-03T09:03:34;12.20;67.60
18291;DHT22;9271;48.590;8.866;2023-04-03T09:06:04;11.70;66.60
18291;DHT22;9271;48.590;8.866;2023-04-03T09:08:34;11.20;65.20
18291;DHT22;9271;48.590;8.866;2023-04-03T09:11:11;10.90;65.70
18291;DHT22;9271;48.590;8.866;2023-04-03T09:13:49;11.00;66.40
18291;DHT22;9271;48.590;8.866;2023-04-03T09:16:32;11.00;64.60
18291;DHT22;9271;48.590;8.866;2023-04-03T09:19:11;10.90;67.70
18291;DHT22;9271;48.590;8.866;2023-04-03T09:21:42;10.60;69.70
18291;DHT22;9271;48.590;8.866;2023-04-03T09:24:10;10.40;70.60
18291;DHT22;9271;48.590;8.866;2023-04-03T09:26:42;10.10;70.10
18291;DHT22;9271;48.590;8.866;2023-04-03T09:29:15;10.00;69.90
18291;DHT22;9271;48.590;8.866;2023-04-03T09:31:44;10.00;69.30
18291;DHT22;9271;48.590;8.866;2023-04-03T09:34:17;10.00;71.30
18291;DHT22;9271;48.590;8.866;2023-04-03T09:36:47;10.50;68.40
18291;DHT22;9271;48.590;8.866;2023-04-03T09:39:16;11.20;70.10
18291;DHT22;9271;48.590;8.866;2023-04-03T09:41:55;11.40;66.80
18291;DHT22;9271;48.590;8.866;2023-04-03T09:44:25;10.90;67.60
18291;DHT22;9271;48.590;8.866;2023-04-03T09:46:52;10.40;69.20
18291;DHT22;9271;48.590;8.866;2023-04-03T09:49:19;10.70;69.70
18291;DHT22;9271;48.590;8.866;2023-04-03T09:51:46;10.70;68.90
18291;DHT22;9271;48.590;8.866;2023-04-03T09:54:31;10.60;70.50
18291;DHT22;9271;48.590;8.866;2023-04-03T09:57:01;10.60;71.00
18291;DHT22;9271;48.590;8.866;2023-04-03T09:59:32;11.00;69.10
18291;DHT22;9271;48.590;8.866;2023-04-03T10:02:00;10.90;66.90
18291;DHT22;9271;48.590;8.866;2023-04-03T10:04:38;10.80;67.50
18291;DHT22;9271;48.590;8.866;2023-04-03T10:07:25;10.70;67.90
18291;DHT22;9271;48.590;8.866;2023-04-03T10:09:55;10.80;66.80
18291;DHT22;9271;48.590;8.866;2023-04-03T10:12:22;10.60;65.50
18291;DHT22;9271;48.590;8.866;2023-04-03T10:14:55;10.50;68.30
18291;DHT22;9271;48.590;8.866;2023-04-03T10:17:30;11.20;70.30
18291;DHT22;9271;48.590;8.866;2023-04-03T10:20:02;11.00;71.20
18291;DHT22;9271;48.590;8.866;2023-04-03T10:22:39;10.90;70.40
18291;DHT22;9271;48.590;8.866;2023-04-03T10:25:14;10.40;72.40
18291;DHT22;9271;48.590;8.866;2023-04-03T10:27:51;10.50;72.20
18291;DHT22;9271;48.590;8.866;2023-04-03T10:30:30;10.50;72.20
18291;DHT22;9271;48.590;8.866;2023-04-03T10:33:05;11.00;72.30
18291;DHT22;9271;48.590;8.866;2023-04-03T10:35:44;11.60;69.50
18291;DHT22;9271;48.590;8.866;2023-04-03T10:38:19;11.80;68.70
18291;DHT22;9271;48.590;8.866;2023-04-03T10:40:52;12.40;68.00
18291;DHT22;9271;48.590;8.866;2023-04-03T10:43:29;14.00;62.60
18291;DHT22;9271;48.590;8.866;2023-04-03T10:46:04;14.00;61.50
18291;DHT22;9271;48.590;8.866;2023-04-03T10:48:52;12.50;62.50
18291;DHT22;9271;48.590;8.866;2023-04-03T10:51:27;12.30;61.70
18291;DHT22;9271;48.590;8.866;2023-04-03T10:54:01;11.20;64.40
18291;DHT22;9271;48.590;8.866;2023-04-03T10:56:32;10.80;65.90
18291;DHT22;9271;48.590;8.866;2023-04-03T10:59:12;10.80;67.50
18291;DHT22;9271;48.590;8.866;2023-04-03T11:01:45;10.50;64.80
18291;DHT22;9271;48.590;8.866;2023-04-03T11:04:13;10.10;65.30
18291;DHT22;9271;48.590;8.866;2023-04-03T11:06:45;10.00;66.80
18291;DHT22;9271;48.590;8.866;2023-04-03T11:09:19;10.10;67.50
18291;DHT22;9271;48.590;8.866;2023-04-03T11:11:51;10.40;66.90
18291;DHT22;9271;48.590;8.866;2023-04-03T11:14:26;10.70;66.70
18291;DHT22;9271;48.590;8.866;2023-04-03T11:17:01;10.50;66.20
18291;DHT22;9271;48.590;8.866;2023-04-03T11:19:35;10.50;67.50
18291;DHT22;9271;48.590;8.866;2023-04-03T11:22:08;10.60;68.50
18291;DHT22;9271;48.590;8.866;2023-04-03T11:24:39;11.00;70.20
18291;DHT22;9271;48.590;8.866;2023-04-03T11:27:13;10.80;69.70
18291;DHT22;9271;48.590;8.866;2023-04-03T11:29:44;11.30;70.50
18291;DHT22;9271;48.590;8.866;2023-04-03T11:32:27;11.50;68.30
18291;DHT22;9271;48.590;8.866;2023-04-03T11:35:00;11.50;65.30
18291;DHT22;9271;48.590;8.866;2023-04-03T11:37:31;11.70;63.30
18291;DHT22;9271;48.590;8.866;2023-04-03T11:40:03;11.50;62.60
18291;DHT22;9271;48.590;8.866;2023-04-03T11:42:35;11.30;61.70
18291;DHT22;9271;48.590;8.866;2023-04-03T11:45:18;11.30;62.80
18291;DHT22;9271;48.590;8.866;2023-04-03T11:47:52;11.70;64.60
18291;DHT22;9271;48.590;8.866;2023-04-03T11:50:39;11.90;63.40
18291;DHT22;9271;48.590;8.866;2023-04-03T11:53:33;11.90;63.90
18291;DHT22;9271;48.590;8.866;2023-04-03T11:56:03;11.60;65.80
18291;DHT22;9271;48.590;8.866;2023-04-03T11:58:31;11.80;60.60
18291;DHT22;9271;48.590;8.866;2023-04-03T12:01:07;11.80;60.50
18291;DHT22;9271;48.590;8.866;2023-04-03T12:04:07;11.80;62.40
18291;DHT22;9271;48.590;8.866;2023-04-03T12:12:33;12.00;64.60
18291;DHT22;9271;48.590;8.866;2023-04-03T12:18:31;12.30;64.30
18291;DHT22;9271;48.590;8.866;2023-04-03T12:20:59;12.80;62.30
18291;DHT22;9271;48.590;8.866;2023-04-03T12:23:29;13.20;61.20
18291;DHT22;9271;48.590;8.866;2023-04-03T12:26:02;13.70;61.00
18291;DHT22;9271;48.590;8.866;2023-04-03T12:28:35;13.60;59.20
18291;DHT22;9271;48.590;8.866;2023-04-03T12:31:04;13.40;60.80
18291;DHT22;9271;48.590;8.866;2023-04-03T12:33:51;13.60;59.70
18291;DHT22;9271;48.590;8.866;2023-04-03T12:36:33;12.90;58.90
18291;DHT22;9271;48.590;8.866;2023-04-03T12:39:14;12.30;58.10
18291;DHT22;9271;48.590;8.866;2023-04-03T12:41:52;12.50;59.80
18291;DHT22;9271;48.590;8.866;2023-04-03T12:44:31;12.20;58.50
18291;DHT22;9271;48.590;8.866;2023-04-03T12:47:15;13.00;59.90
18291;DHT22;9271;48.590;8.866;2023-04-03T12:49:43;14.00;56.40
18291;DHT22;9271;48.590;8.866;2023-04-03T12:52:19;14.50;55.30
18291;DHT22;9271;48.590;8.866;2023-04-03T12:54:47;14.20;53.70
18291;DHT22;9271;48.590;8.866;2023-04-03T12:57:18;13.30;54.70
18291;DHT22;9271;48.590;8.866;2023-04-03T12:59:46;12.80;55.10
18291;DHT22;9271;48.590;8.866;2023-04-03T13:02:21;11.90;57.00
18291;DHT22;9271;48.590;8.866;2023-04-03T13:04:50;10.90;59.20
18291;DHT22;9271;48.590;8.866;2023-04-03T13:07:24;10.40;60.00
18291;DHT22;9271;48.590;8.866;2023-04-03T13:09:56;10.40;61.10
18291;DHT22;9271;48.590;8.866;2023-04-03T13:12:24;10.10;61.50
18291;DHT22;9271;48.590;8.866;2023-04-03T13:14:52;10.30;62.20
18291;DHT22;9271;48.590;8.866;2023-04-03T13:17:20;10.70;61.90
18291;DHT22;9271;48.590;8.866;2023-04-03T13:19:47;10.90;61.80
18291;DHT22;9271;48.590;8.866;2023-04-03T13:22:28;10.60;62.00
18291;DHT22;9271;48.590;8.866;2023-04-03T13:24:58;10.60;61.60
18291;DHT22;9271;48.590;8.866;2023-04-03T13:27:27;10.60;62.20
18291;DHT22;9271;48.590;8.866;2023-04-03T13:29:58;10.80;62.20
18291;DHT22;9271;48.590;8.866;2023-04-03T13:32:27;11.50;61.00
18291;DHT22;9271;48.590;8.866;2023-04-03T13:34:54;12.20;58.10
18291;DHT22;9271;48.590;8.866;2023-04-03T13:37:23;13.40;56.80
18291;DHT22;9271;48.590;8.866;2023-04-03T13:40:00;13.90;55.20
18291;DHT22;9271;48.590;8.866;2023-04-03T13:42:29;13.30;55.60
18291;DHT22;9271;48.590;8.866;2023-04-03T13:45:18;13.30;57.00
18291;DHT22;9271;48.590;8.866;2023-04-03T13:47:47;13.20;55.40
18291;DHT22;9271;48.590;8.866;2023-04-03T13:50:17;12.70;56.20
18291;DHT22;9271;48.590;8.866;2023-04-03T13:52:47;12.20;55.90
18291;DHT22;9271;48.590;8.866;2023-04-03T13:55:24;11.50;57.90
18291;DHT22;9271;48.590;8.866;2023-04-03T13:57:54;10.80;58.70
18291;DHT22;9271;48.590;8.866;2023-04-03T14:00:29;10.30;58.70
18291;DHT22;9271;48.590;8.866;2023-04-03T14:02:57;9.30;61.40
18291;DHT22;9271;48.590;8.866;2023-04-03T14:05:24;9.70;62.90
18291;DHT22;9271;48.590;8.866;2023-04-03T14:07:52;10.20;59.70
18291;DHT22;9271;48.590;8.866;2023-04-03T14:10:20;10.30;58.00
18291;DHT22;9271;48.590;8.866;2023-04-03T14:12:48;10.50;56.80
18291;DHT22;9271;48.590;8.866;2023-04-03T14:15:18;10.90;57.30
18291;DHT22;9271;48.590;8.866;2023-04-03T14:17:47;11.30;57.00
18291;DHT22;9271;48.590;8.866;2023-04-03T14:20:16;11.40;57.30
18291;DHT22;9271;48.590;8.866;2023-04-03T14:22:43;11.30;56.80
18291;DHT22;9271;48.590;8.866;2023-04-03T14:25:10;11.20;56.30
18291;DHT22;9271;48.590;8.866;2023-04-03T14:27:38;11.00;56.30
18291;DHT22;9271;48.590;8.866;2023-04-03T14:30:11;11.10;56.30
18291;DHT22;9271;48.590;8.866;2023-04-03T14:32:39;10.90;57.30
18291;DHT22;9271;48.590;8.866;2023-04-03T14:35:06;10.50;56.80
18291;DHT22;9271;48.590;8.866;2023-04-03T14:37:33;10.20;57.90
18291;DHT22;9271;48.590;8.866;2023-04-03T14:40:06;9.90;59.00
18291;DHT22;9271;48.590;8.866;2023-04-03T14:42:36;10.20;59.40
18291;DHT22;9271;48.590;8.866;2023-04-03T14:45:05;10.20;59.30
18291;DHT22;9271;48.590;8.866;2023-04-03T14:47:46;9.90;60.40
18291;DHT22;9271;48.590;8.866;2023-04-03T14:50:16;10.10;59.00
18291;DHT22;9271;48.590;8.866;2023-04-03T14:52:43;10.00;58.20
18291;DHT22;9271;48.590;8.866;2023-04-03T14:55:14;10.30;57.50
18291;DHT22;9271;48.590;8.866;2023-04-03T14:57:41;9.90;58.60
18291;DHT22;9271;48.590;8.866;2023-04-03T15:00:12;10.00;59.00
18291;DHT22;9271;48.590;8.866;2023-04-03T15:02:41;10.40;58.10
18291;DHT22;9271;48.590;8.866;2023-04-03T15:05:09;10.30;56.80
18291;DHT22;9271;48.590;8.866;2023-04-03T15:07:38;10.60;57.90
18291;DHT22;9271;48.590;8.866;2023-04-03T15:10:16;10.70;57.80
18291;DHT22;9271;48.590;8.866;2023-04-03T15:12:43;10.50;56.60
18291;DHT22;9271;48.590;8.866;2023-04-03T15:15:11;10.30;57.70
18291;DHT22;9271;48.590;8.866;2023-04-03T15:17:38;10.80;58.30
18291;DHT22;9271;48.590;8.866;2023-04-03T15:20:12;11.40;57.50
18291;DHT22;9271;48.590;8.866;2023-04-03T15:22:39;11.40;56.80
18291;DHT22;9271;48.590;8.866;2023-04-03T15:25:07;11.70;57.40
18291;DHT22;9271;48.590;8.866;2023-04-03T15:27:33;11.90;57.00
18291;DHT22;9271;48.590;8.866;2023-04-03T15:30:00;11.60;56.30
18291;DHT22;9271;48.590;8.866;2023-04-03T15:32:27;11.30;56.10
18291;DHT22;9271;48.590;8.866;2023-04-03T15:34:54;10.80;57.10
18291;DHT22;9271;48.590;8.866;2023-04-03T15:37:22;10.60;56.80
18291;DHT22;9271;48.590;8.866;2023-04-03T15:39:49;10.20;57.30
18291;DHT22;9271;48.590;8.866;2023-04-03T15:42:15;10.20;57.90
18291;DHT22;9271;48.590;8.866;2023-04-03T15:44:42;10.10;58.20
18291;DHT22;9271;48.590;8.866;2023-04-03T15:47:09;10.20;59.00
18291;DHT22;9271;48.590;8.866;2023-04-03T15:49:36;10.00;57.30
18291;DHT22;9271;48.590;8.866;2023-04-03T15:52:03;10.00;56.70
18291;DHT22;9271;48.590;8.866;2023-04-03T15:54:31;10.50;57.10
18291;DHT22;9271;48.590;8.866;2023-04-03T15:56:58;12.10;57.40
18291;DHT22;9271;48.590;8.866;2023-04-03T15:59:24;12.60;55.00
18291;DHT22;9271;48.590;8.866;2023-04-03T16:01:52;12.60;53.40
18291;DHT22;9271;48.590;8.866;2023-04-03T16:04:19;12.60;53.40
18291;DHT22;9271;48.590;8.866;2023-04-03T16:06:46;12.00;54.40
18291;DHT22;9271;48.590;8.866;2023-04-03T16:09:13;11.10;54.00
18291;DHT22;9271;48.590;8.866;2023-04-03T16:11:41;10.50;55.60
18291;DHT22;9271;48.590;8.866;2023-04-03T16:14:09;9.80;57.20
18291;DHT22;9271;48.590;8.866;2023-04-03T16:16:37;9.50;57.10
18291;DHT22;9271;48.590;8.866;2023-04-03T16:19:04;9.00;58.60
18291;DHT22;9271;48.590;8.866;2023-04-03T16:21:32;8.80;58.80